createdAt,value
2022-09-05T00:04:37.563Z,21.56
2022-09-05T00:10:05.798Z,21.51
2022-09-05T00:15:16.560Z,21.46
2022-09-05T00:24:21.281Z,21.46
2022-09-05T00:26:28.993Z,21.41
2022-09-05T00:31:55.520Z,21.39
2022-09-05T00:36:58.153Z,21.36
2022-09-05T00:42:06.683Z,21.32
2022-09-05T00:47:27.701Z,21.28
2022-09-05T00:53:06.255Z,21.24
2022-09-05T00:58:33.918Z,21.21
2022-09-05T01:03:55.822Z,21.11
2022-09-05T01:09:35.373Z,21.09
2022-09-05T01:14:54.329Z,21.05
2022-09-05T01:20:32.057Z,21.03
2022-09-05T01:26:03.925Z,21.01
2022-09-05T01:31:22.880Z,20.97
2022-09-05T01:36:39.457Z,20.95
2022-09-05T01:42:04.540Z,20.93
2022-09-05T01:47:29.305Z,20.92
2022-09-05T01:52:57.285Z,20.89
2022-09-05T01:58:02.507Z,20.86
2022-09-05T02:03:23.693Z,20.83
2022-09-05T02:08:40.974Z,20.80
2022-09-05T02:14:03.501Z,20.73
2022-09-05T02:19:12.632Z,20.69
2022-09-05T02:24:24.291Z,20.64
2022-09-05T02:29:31.881Z,20.60
2022-09-05T02:35:01.683Z,20.54
2022-09-05T02:45:04.286Z,20.51
2022-09-05T02:46:28.214Z,20.45
2022-09-05T02:57:24.396Z,20.42
2022-09-05T02:58:04.740Z,20.38
2022-09-05T03:03:02.781Z,20.34
2022-09-05T03:08:15.739Z,20.30
2022-09-05T03:13:53.932Z,20.25
2022-09-05T03:19:14.895Z,20.19
2022-09-05T03:24:48.244Z,20.14
2022-09-05T03:30:15.755Z,20.12
2022-09-05T03:35:32.787Z,20.08
2022-09-05T03:40:53.126Z,20.05
2022-09-05T03:46:09.237Z,20.04
2022-09-05T03:57:12.796Z,20.02
2022-09-05T03:57:32.304Z,20.00
2022-09-05T04:07:44.166Z,19.97
2022-09-05T04:08:40.852Z,19.94
2022-09-05T04:14:02.456Z,19.90
2022-09-05T04:19:23.983Z,19.87
2022-09-05T04:24:39.604Z,19.86
2022-09-05T04:30:06.545Z,19.82
2022-09-05T04:35:33.090Z,19.80
2022-09-05T04:40:42.495Z,19.78
2022-09-05T04:45:55.186Z,19.76
2022-09-05T04:51:29.822Z,19.75
2022-09-05T04:56:40.157Z,19.73
2022-09-05T05:06:13.326Z,19.73
2022-09-05T05:07:29.494Z,19.73
2022-09-05T05:17:55.650Z,19.74
2022-09-05T05:18:48.849Z,19.75
2022-09-05T05:24:13.800Z,19.76
2022-09-05T05:29:21.252Z,19.77
2022-09-05T05:34:31.391Z,19.79
2022-09-05T05:39:36.738Z,19.83
2022-09-05T05:44:38.814Z,19.87
2022-09-05T05:49:54.155Z,19.92
2022-09-05T05:55:51.695Z,19.97
2022-09-05T06:00:52.865Z,20.04
2022-09-05T06:06:22.983Z,20.09
2022-09-05T06:15:00.161Z,20.14
2022-09-05T06:22:56.777Z,20.31
2022-09-05T06:28:19.286Z,20.39
2022-09-05T06:33:55.611Z,20.47
2022-09-05T06:39:28.584Z,20.57
2022-09-05T06:44:57.032Z,20.67
2022-09-05T06:50:26.768Z,20.74
2022-09-05T06:55:59.867Z,20.81
2022-09-05T07:01:02.729Z,20.88
2022-09-05T07:07:01.064Z,20.96
2022-09-05T07:12:14.879Z,21.05
2022-09-05T07:17:24.394Z,21.13
2022-09-05T07:22:51.343Z,21.20
2022-09-05T07:28:19.574Z,21.32
2022-09-05T07:33:22.474Z,21.43
2022-09-05T07:38:49.030Z,21.51
2022-09-05T07:43:55.512Z,21.61
2022-09-05T07:49:07.224Z,21.72
2022-09-05T07:57:01.329Z,21.84
2022-09-05T07:59:48.226Z,21.98
2022-09-05T08:04:50.231Z,22.11
2022-09-05T08:10:05.875Z,22.24
2022-09-05T08:15:16.439Z,22.38
2022-09-05T08:20:40.249Z,22.48
2022-09-05T08:25:57.979Z,22.60
2022-09-05T08:31:10.493Z,22.70
2022-09-05T08:36:21.398Z,22.84
2022-09-05T08:41:51.360Z,22.96
2022-09-05T08:47:16.482Z,23.07
2022-09-05T08:52:51.807Z,23.22
2022-09-05T08:58:02.626Z,23.36
2022-09-05T09:03:25.671Z,23.49
2022-09-05T09:08:49.174Z,23.65
2022-09-05T09:13:57.262Z,23.77
2022-09-05T09:19:08.196Z,23.90
2022-09-05T09:24:27.735Z,24.02
2022-09-05T09:29:36.457Z,24.15
2022-09-05T09:34:56.491Z,24.27
2022-09-05T09:40:25.638Z,24.36
2022-09-05T09:45:55.544Z,24.50
2022-09-05T09:51:19.182Z,24.64
2022-09-05T09:56:48.957Z,24.80
2022-09-05T10:02:38.186Z,24.97
2022-09-05T10:10:50.236Z,25.12
2022-09-05T10:13:44.293Z,25.25
2022-09-05T10:18:56.253Z,25.35
2022-09-05T10:24:31.416Z,25.44
2022-09-05T10:29:38.531Z,25.59
2022-09-05T10:35:17.783Z,25.70
2022-09-05T10:40:25.449Z,25.86
2022-09-05T10:45:48.932Z,26.02
2022-09-05T10:50:55.317Z,26.13
2022-09-05T10:56:14.256Z,26.28
2022-09-05T11:02:29.805Z,26.45
2022-09-05T11:06:55.130Z,26.61
2022-09-05T11:12:22.283Z,26.73
2022-09-05T11:17:32.767Z,26.87
2022-09-05T11:22:40.029Z,26.97
2022-09-05T11:27:45.683Z,27.08
2022-09-05T11:39:47.195Z,27.20
2022-09-05T11:40:04.230Z,27.33
2022-09-05T11:44:58.283Z,27.44
2022-09-05T11:50:10.494Z,27.57
2022-09-05T11:55:39.677Z,27.69
2022-09-05T12:00:51.834Z,27.80
2022-09-05T12:06:22.453Z,27.91
2022-09-05T12:12:18.624Z,28.00
2022-09-05T12:18:02.844Z,28.14
2022-09-05T12:23:49.335Z,28.24
2022-09-05T12:29:33.483Z,28.35
2022-09-05T12:36:07.973Z,28.52
2022-09-05T12:41:39.185Z,28.65
2022-09-05T12:46:23.998Z,28.71
2022-09-05T12:51:46.924Z,28.78
2022-09-05T13:00:46.594Z,28.86
2022-09-05T13:03:13.937Z,28.97
2022-09-05T13:07:58.207Z,29.09
2022-09-05T13:14:56.312Z,29.21
2022-09-05T13:18:39.130Z,29.35
2022-09-05T13:23:50.599Z,29.46
2022-09-05T13:29:10.021Z,29.52
2022-09-05T13:38:29.263Z,29.61
2022-09-05T13:39:55.093Z,29.72
2022-09-05T13:45:01.781Z,29.85
2022-09-05T13:50:23.077Z,29.96
2022-09-05T13:55:43.301Z,30.07
2022-09-05T14:01:06.594Z,30.14
2022-09-05T14:06:52.522Z,30.21
2022-09-05T14:12:42.330Z,30.27
2022-09-05T14:18:20.244Z,30.35
2022-09-05T14:23:28.180Z,30.46
2022-09-05T14:28:39.937Z,30.57
2022-09-05T14:37:40.489Z,30.66
2022-09-05T14:39:53.645Z,30.77
2022-09-05T14:45:16.741Z,30.85
2022-09-05T14:50:23.193Z,30.94
2022-09-05T14:55:25.311Z,31.02
2022-09-05T15:02:51.983Z,31.17
2022-09-05T15:05:51.338Z,31.30
2022-09-05T15:12:15.016Z,31.43
2022-09-05T15:16:17.763Z,31.58
2022-09-05T15:21:33.291Z,31.69
2022-09-05T15:26:47.904Z,31.81
2022-09-05T15:31:53.335Z,31.87
2022-09-05T15:37:37.022Z,31.96
2022-09-05T15:42:48.312Z,32.04
2022-09-05T15:48:18.501Z,32.06
2022-09-05T15:53:27.246Z,32.11
2022-09-05T15:58:52.502Z,32.19
2022-09-05T16:05:59.523Z,32.24
2022-09-05T16:10:48.951Z,32.27
2022-09-05T16:16:12.262Z,32.28
2022-09-05T16:23:35.081Z,32.33
2022-09-05T16:25:56.101Z,32.39
2022-09-05T16:31:04.443Z,32.45
2022-09-05T16:36:31.131Z,32.45
2022-09-05T16:41:58.038Z,32.45
2022-09-05T16:47:13.035Z,32.44
2022-09-05T16:52:17.333Z,32.43
2022-09-05T16:57:32.421Z,32.38
2022-09-05T17:02:44.091Z,32.33
2022-09-05T17:08:03.649Z,32.26
2022-09-05T17:13:08.097Z,32.19
2022-09-05T17:18:19.487Z,32.06
2022-09-05T17:29:16.046Z,31.86
2022-09-05T17:29:32.368Z,31.61
2022-09-05T17:34:21.318Z,31.31
2022-09-05T17:39:44.517Z,31.00
2022-09-05T17:45:06.392Z,30.63
2022-09-05T17:50:15.969Z,30.29
2022-09-05T17:55:18.416Z,29.95
2022-09-05T18:00:44.510Z,29.59
2022-09-05T18:05:56.801Z,29.30
2022-09-05T18:11:02.155Z,29.03
2022-09-05T18:16:30.386Z,28.83
2022-09-05T18:21:48.497Z,28.64
2022-09-05T18:26:56.047Z,28.49
2022-09-05T18:32:13.013Z,28.35
2022-09-05T18:37:37.927Z,28.22
2022-09-05T18:42:42.603Z,28.14
2022-09-05T18:47:59.359Z,28.02
2022-09-05T18:53:10.460Z,27.94
2022-09-05T18:58:26.583Z,27.86
2022-09-05T19:03:32.958Z,27.80
2022-09-05T19:08:44.435Z,27.71
2022-09-05T19:13:47.415Z,27.66
2022-09-05T19:19:10.671Z,27.60
2022-09-05T19:24:20.267Z,27.54
2022-09-05T19:36:50.377Z,27.36
2022-09-05T19:36:58.423Z,27.47
2022-09-05T19:47:29.616Z,27.27
2022-09-05T19:47:40.837Z,27.11
2022-09-05T19:51:17.370Z,26.98
2022-09-05T19:56:23.496Z,26.88
2022-09-05T20:01:25.995Z,26.81
2022-09-05T20:06:30.994Z,26.75
2022-09-05T20:11:45.249Z,26.68
2022-09-05T20:16:49.990Z,26.60
2022-09-05T20:21:56.738Z,26.51
2022-09-05T20:26:59.765Z,26.43
2022-09-05T20:32:02.309Z,26.34
2022-09-05T20:43:10.357Z,26.25
2022-09-05T20:43:15.055Z,26.16
2022-09-05T20:54:12.840Z,26.06
2022-09-05T20:54:27.507Z,25.99
2022-09-05T20:58:48.220Z,25.91
2022-09-05T21:03:59.380Z,25.82
2022-09-05T21:09:24.334Z,25.73
2022-09-05T21:14:28.838Z,25.63
2022-09-05T21:19:32.786Z,25.57
2022-09-05T21:24:35.075Z,25.48
2022-09-05T21:29:36.923Z,25.41
2022-09-05T21:34:46.219Z,25.35
2022-09-05T21:39:59.590Z,25.28
2022-09-05T21:47:43.998Z,25.20
2022-09-05T21:50:30.994Z,25.13
2022-09-05T21:59:25.803Z,25.05
2022-09-05T22:00:57.155Z,24.97
2022-09-05T22:05:59.175Z,24.90
2022-09-05T22:11:10.577Z,24.80
2022-09-05T22:16:14.725Z,24.75
2022-09-05T22:21:32.775Z,24.67
2022-09-05T22:26:50.760Z,24.59
2022-09-05T22:32:04.013Z,24.52
2022-09-05T22:37:05.694Z,24.44
2022-09-05T22:42:10.662Z,24.38
2022-09-05T22:47:12.779Z,24.32
2022-09-05T22:52:14.322Z,24.26
2022-09-05T22:57:16.132Z,24.20
2022-09-05T23:02:17.713Z,24.13
2022-09-05T23:07:21.003Z,24.09
2022-09-05T23:12:22.569Z,24.06
2022-09-05T23:17:24.170Z,24.02
2022-09-05T23:22:25.822Z,23.96
2022-09-05T23:27:28.315Z,23.93
2022-09-05T23:32:29.869Z,23.88
2022-09-05T23:37:31.386Z,23.82
2022-09-05T23:42:33.050Z,23.78
2022-09-05T23:47:35.885Z,23.73
2022-09-05T23:52:39.669Z,23.68
2022-09-05T23:57:41.527Z,23.61
